createdAt,value
2018-09-14T00:01:53.635Z,10.90
2018-09-14T00:04:23.456Z,6.00
2018-09-14T00:06:53.884Z,8.77
2018-09-14T00:09:25.364Z,7.27
2018-09-14T00:11:56.060Z,7.40
2018-09-14T00:14:25.898Z,7.87
2018-09-14T00:16:56.409Z,4.87
2018-09-14T00:19:26.805Z,5.47
2018-09-14T00:21:57.280Z,5.57
2018-09-14T00:24:27.707Z,9.53
2018-09-14T00:26:58.083Z,6.83
2018-09-14T00:29:28.664Z,9.40
2018-09-14T00:31:59.048Z,8.67
2018-09-14T00:34:29.003Z,6.83
2018-09-14T00:36:59.404Z,8.10
2018-09-14T00:39:29.864Z,6.20
2018-09-14T00:42:00.773Z,8.00
2018-09-14T00:44:31.323Z,6.57
2018-09-14T00:47:01.627Z,11.47
2018-09-14T00:49:32.130Z,6.93
2018-09-14T00:52:02.603Z,7.43
2018-09-14T00:54:33.132Z,7.90
2018-09-14T00:57:03.635Z,7.10
2018-09-14T00:59:33.331Z,8.10
2018-09-14T01:02:02.994Z,6.43
2018-09-14T01:04:33.412Z,8.93
2018-09-14T01:07:03.830Z,7.87
2018-09-14T01:09:34.256Z,8.83
2018-09-14T01:12:04.788Z,7.60
2018-09-14T01:14:35.192Z,10.70
2018-09-14T01:17:05.810Z,9.80
2018-09-14T01:19:36.167Z,8.80
2018-09-14T01:22:06.707Z,9.00
2018-09-14T01:24:37.324Z,10.53
2018-09-14T01:27:07.927Z,9.80
2018-09-14T01:29:37.748Z,11.20
2018-09-14T01:32:08.477Z,9.80
2018-09-14T01:34:38.960Z,12.73
2018-09-14T01:37:09.334Z,11.17
2018-09-14T01:39:39.941Z,12.23
2018-09-14T01:42:10.363Z,11.77
2018-09-14T01:44:41.257Z,14.07
2018-09-14T01:47:11.715Z,15.07
2018-09-14T01:49:42.237Z,14.60
2018-09-14T01:52:12.714Z,13.47
2018-09-14T01:54:43.109Z,13.67
2018-09-14T01:57:13.553Z,12.93
2018-09-14T01:59:43.374Z,15.03
2018-09-14T02:02:13.692Z,15.40
2018-09-14T02:04:43.429Z,17.33
2018-09-14T02:07:13.889Z,16.20
2018-09-14T02:09:44.460Z,18.93
2018-09-14T02:12:14.844Z,15.87
2018-09-14T02:14:45.561Z,17.97
2018-09-14T02:17:16.693Z,19.67
2018-09-14T02:19:47.221Z,17.77
2018-09-14T02:22:17.700Z,19.80
2018-09-14T02:24:48.556Z,18.97
2018-09-14T02:27:18.980Z,19.53
2018-09-14T02:29:48.682Z,19.03
2018-09-14T02:32:18.853Z,21.30
2018-09-14T02:34:49.382Z,22.67
2018-09-14T02:37:19.857Z,20.73
2018-09-14T02:39:50.357Z,22.50
2018-09-14T02:42:20.937Z,21.50
2018-09-14T02:44:51.359Z,25.93
2018-09-14T02:47:22.008Z,23.73
2018-09-14T02:49:52.419Z,23.83
2018-09-14T02:52:22.915Z,24.40
2018-09-14T02:54:53.565Z,19.80
2018-09-14T02:57:23.319Z,22.30
2018-09-14T02:59:53.612Z,21.53
2018-09-14T03:02:24.037Z,21.00
2018-09-14T03:04:55.312Z,16.17
2018-09-14T03:07:26.187Z,15.73
2018-09-14T03:09:56.766Z,13.93
2018-09-14T03:12:27.150Z,17.93
2018-09-14T03:14:57.645Z,16.23
2018-09-14T03:17:28.023Z,17.63
2018-09-14T03:19:58.544Z,17.83
2018-09-14T03:22:29.089Z,21.70
2018-09-14T03:24:59.465Z,23.40
2018-09-14T03:27:29.941Z,22.53
2018-09-14T03:30:00.408Z,24.60
2018-09-14T03:32:31.180Z,22.03
2018-09-14T03:35:00.894Z,24.70
2018-09-14T03:37:31.237Z,18.90
2018-09-14T03:40:02.741Z,20.00
2018-09-14T03:42:33.472Z,19.50
2018-09-14T03:45:04.227Z,20.30
2018-09-14T03:47:34.704Z,19.87
2018-09-14T03:50:05.127Z,21.90
2018-09-14T03:52:35.508Z,22.00
2018-09-14T03:55:05.448Z,29.33
2018-09-14T03:57:35.765Z,23.43
2018-09-14T04:00:06.352Z,22.43
2018-09-14T04:02:36.830Z,25.77
2018-09-14T04:05:07.411Z,25.57
2018-09-14T04:07:37.746Z,25.10
2018-09-14T04:10:07.615Z,26.23
2018-09-14T04:12:38.129Z,22.70
2018-09-14T04:15:08.617Z,21.70
2018-09-14T04:17:39.052Z,25.17
2018-09-14T04:20:09.540Z,23.33
2018-09-14T04:22:40.165Z,21.77
2018-09-14T04:25:10.696Z,26.27
2018-09-14T04:27:42.017Z,22.23
2018-09-14T04:30:12.483Z,21.70
2018-09-14T04:32:43.196Z,24.47
2018-09-14T04:35:14.661Z,22.57
2018-09-14T04:37:45.129Z,22.27
2018-09-14T04:40:15.633Z,20.30
2018-09-14T04:42:46.133Z,22.50
2018-09-14T04:45:17.513Z,24.77
2018-09-14T04:47:47.984Z,21.27
2018-09-14T04:50:18.312Z,25.47
2018-09-14T04:52:48.679Z,24.17
2018-09-14T04:55:19.189Z,25.63
2018-09-14T04:57:49.597Z,27.43
2018-09-14T05:00:20.061Z,26.83
2018-09-14T05:02:50.540Z,29.77
2018-09-14T05:05:21.006Z,26.93
2018-09-14T05:07:51.485Z,28.73
2018-09-14T05:10:21.296Z,27.27
2018-09-14T05:12:51.654Z,28.67
2018-09-14T05:15:22.130Z,25.63
2018-09-14T05:17:52.015Z,28.20
2018-09-14T05:20:23.928Z,31.30
2018-09-14T05:22:53.751Z,27.77
2018-09-14T05:25:24.106Z,29.37
2018-09-14T05:27:54.760Z,29.60
2018-09-14T05:30:25.373Z,28.67
2018-09-14T05:32:56.357Z,27.43
2018-09-14T05:35:26.272Z,30.93
2018-09-14T05:37:56.576Z,29.47
2018-09-14T05:40:27.068Z,31.93
2018-09-14T05:42:57.339Z,27.77
2018-09-14T05:45:27.828Z,27.67
2018-09-14T05:47:58.309Z,26.50
2018-09-14T05:50:28.083Z,30.00
2018-09-14T05:52:58.419Z,30.27
2018-09-14T05:55:28.948Z,27.43
2018-09-14T05:58:00.417Z,27.57
2018-09-14T06:00:30.576Z,28.87
2018-09-14T06:03:00.952Z,27.70
2018-09-14T06:05:31.560Z,28.47
2018-09-14T06:08:02.017Z,22.23
2018-09-14T06:10:32.144Z,24.77
2018-09-14T06:13:02.513Z,26.20
2018-09-14T06:15:32.501Z,25.43
2018-09-14T06:18:02.840Z,25.70
2018-09-14T06:20:33.305Z,23.20
2018-09-14T06:23:03.864Z,22.27
2018-09-14T06:25:33.748Z,25.23
2018-09-14T06:28:03.991Z,25.67
2018-09-14T06:30:34.517Z,22.27
2018-09-14T06:33:05.008Z,23.40
2018-09-14T06:35:35.408Z,23.67
2018-09-14T06:38:06.050Z,22.07
2018-09-14T06:40:36.513Z,23.10
2018-09-14T06:43:07.797Z,23.47
2018-09-14T06:45:38.660Z,23.80
2018-09-14T06:48:09.054Z,27.90
2018-09-14T06:50:39.566Z,23.83
2018-09-14T06:53:10.003Z,20.97
2018-09-14T06:55:39.682Z,24.23
2018-09-14T06:58:10.075Z,21.43
2018-09-14T07:00:40.534Z,20.93
2018-09-14T07:03:11.473Z,23.17
2018-09-14T07:05:42.021Z,24.63
2018-09-14T07:08:12.368Z,22.40
2018-09-14T07:10:42.922Z,24.23
2018-09-14T07:13:13.219Z,20.60
2018-09-14T07:15:43.725Z,18.23
2018-09-14T07:18:14.181Z,18.00
2018-09-14T07:20:44.649Z,17.73
2018-09-14T07:23:15.111Z,16.60
2018-09-14T07:25:45.529Z,16.33
2018-09-14T07:28:16.033Z,16.53
2018-09-14T07:30:46.520Z,16.73
2018-09-14T07:33:17.137Z,14.20
2018-09-14T07:35:48.368Z,14.03
2018-09-14T07:38:18.813Z,11.83
2018-09-14T07:40:49.169Z,11.27
2018-09-14T07:43:19.565Z,10.60
2018-09-14T07:45:49.401Z,10.37
2018-09-14T07:48:19.791Z,9.47
2018-09-14T07:50:50.180Z,9.73
2018-09-14T07:53:20.652Z,8.83
2018-09-14T07:55:50.559Z,9.03
2018-09-14T07:58:20.892Z,10.07
2018-09-14T08:00:50.800Z,10.30
2018-09-14T08:03:21.908Z,9.10
2018-09-14T08:05:53.353Z,10.23
2018-09-14T08:08:23.865Z,9.50
2018-09-14T08:10:54.280Z,8.20
2018-09-14T08:13:24.840Z,9.80
2018-09-14T08:15:54.588Z,9.63
2018-09-14T08:18:24.925Z,10.40
2018-09-14T08:20:55.372Z,9.37
2018-09-14T08:23:25.904Z,10.77
2018-09-14T08:25:56.268Z,9.47
2018-09-14T08:28:27.676Z,10.03
2018-09-14T08:30:58.265Z,10.70
2018-09-14T08:33:28.016Z,10.60
2018-09-14T08:35:58.272Z,11.30
2018-09-14T08:38:28.634Z,10.80
2018-09-14T08:40:59.009Z,12.23
2018-09-14T08:43:29.418Z,13.10
2018-09-14T08:45:59.970Z,11.77
2018-09-14T08:48:30.468Z,12.90
2018-09-14T08:51:01.034Z,11.83
2018-09-14T08:53:31.533Z,11.77
2018-09-14T08:56:02.090Z,10.97
2018-09-14T08:58:32.555Z,11.07
2018-09-14T09:01:02.473Z,11.27
2018-09-14T09:03:32.224Z,12.37
2018-09-14T09:06:02.672Z,10.13
2018-09-14T09:08:33.124Z,11.70
2018-09-14T09:11:04.679Z,11.30
2018-09-14T09:13:35.105Z,11.43
2018-09-14T09:16:05.609Z,12.10
2018-09-14T09:18:35.527Z,12.13
2018-09-14T09:21:06.056Z,12.90
2018-09-14T09:23:36.520Z,12.00
2018-09-14T09:26:06.880Z,12.27
2018-09-14T09:28:37.657Z,13.10
2018-09-14T09:31:08.255Z,11.97
2018-09-14T09:33:38.764Z,12.10
2018-09-14T09:36:09.249Z,13.47
2018-09-14T09:38:39.020Z,13.63
2018-09-14T09:41:09.449Z,12.13
2018-09-14T09:43:40.100Z,12.87
2018-09-14T09:46:10.552Z,15.30
2018-09-14T09:48:40.312Z,14.03
2018-09-14T09:51:10.644Z,13.03
2018-09-14T09:53:41.084Z,14.13
2018-09-14T09:56:11.888Z,15.23
2018-09-14T09:58:42.524Z,15.00
2018-09-14T10:01:18.092Z,15.50
2018-09-14T10:03:53.524Z,16.73
2018-09-14T10:06:25.992Z,17.30
2018-09-14T10:08:57.425Z,15.97
2018-09-14T10:11:28.177Z,15.80
2018-09-14T10:13:58.670Z,16.20
2018-09-14T10:16:29.560Z,16.93
2018-09-14T10:19:00.377Z,16.43
2018-09-14T10:21:30.898Z,18.90
2018-09-14T10:24:01.349Z,15.90
2018-09-14T10:26:31.853Z,15.27
2018-09-14T10:29:02.402Z,14.33
2018-09-14T10:31:32.708Z,13.33
2018-09-14T10:34:03.160Z,11.67
2018-09-14T10:36:33.609Z,10.93
2018-09-14T10:39:03.475Z,12.83
2018-09-14T10:41:33.687Z,9.57
2018-09-14T10:44:04.170Z,10.00
2018-09-14T10:46:34.673Z,11.00
2018-09-14T10:49:05.277Z,10.47
2018-09-14T10:51:35.768Z,10.27
2018-09-14T10:54:06.142Z,12.03
2018-09-14T10:56:36.663Z,10.93
2018-09-14T10:59:06.971Z,11.43
2018-09-14T11:01:37.635Z,10.57
2018-09-14T11:04:07.987Z,10.10
2018-09-14T11:06:38.628Z,10.23
2018-09-14T11:09:12.295Z,10.70
2018-09-14T11:11:42.879Z,13.10
2018-09-14T11:14:13.003Z,11.53
2018-09-14T11:16:43.244Z,13.17
2018-09-14T11:19:13.749Z,13.17
2018-09-14T11:21:44.116Z,15.77
2018-09-14T11:24:14.564Z,14.90
2018-09-14T11:26:45.079Z,13.03
2018-09-14T11:29:15.563Z,13.90
2018-09-14T11:31:46.038Z,12.80
2018-09-14T11:34:16.485Z,13.73
2018-09-14T11:36:47.105Z,13.70
2018-09-14T11:39:17.598Z,12.33
2018-09-14T11:41:48.116Z,13.13
2018-09-14T11:44:18.561Z,13.00
2018-09-14T11:46:49.080Z,12.70
2018-09-14T11:49:19.655Z,12.97
2018-09-14T11:51:50.120Z,12.97
2018-09-14T11:54:20.615Z,12.63
2018-09-14T11:56:51.017Z,14.70
2018-09-14T11:59:21.502Z,12.97
2018-09-14T12:01:51.847Z,14.27
2018-09-14T12:04:22.347Z,14.23
2018-09-14T12:06:52.929Z,14.80
2018-09-14T12:09:23.325Z,14.47
2018-09-14T12:11:53.904Z,13.83
2018-09-14T12:14:24.350Z,15.37
2018-09-14T12:16:54.822Z,15.87
2018-09-14T12:19:25.400Z,14.20
2018-09-14T12:21:55.215Z,17.33
2018-09-14T12:24:25.531Z,14.43
2018-09-14T12:26:55.444Z,17.57
2018-09-14T12:29:26.832Z,13.90
2018-09-14T12:31:57.213Z,14.27
2018-09-14T12:34:27.070Z,15.73
2018-09-14T12:36:57.702Z,14.97
2018-09-14T12:39:28.237Z,15.40
2018-09-14T12:41:58.688Z,15.67
2018-09-14T12:44:29.053Z,17.43
2018-09-14T12:46:59.649Z,16.50
2018-09-14T12:49:30.248Z,16.57
2018-09-14T12:52:00.786Z,16.97
2018-09-14T12:54:31.402Z,15.87
2018-09-14T12:57:01.844Z,16.43
2018-09-14T12:59:32.345Z,15.73
2018-09-14T13:02:02.840Z,15.77
2018-09-14T13:04:33.326Z,14.60
2018-09-14T13:07:03.756Z,16.27
2018-09-14T13:09:34.253Z,15.23
2018-09-14T13:12:04.624Z,14.80
2018-09-14T13:14:35.160Z,16.30
2018-09-14T13:17:05.325Z,14.77
2018-09-14T13:19:35.649Z,16.00
2018-09-14T13:22:06.280Z,15.70
2018-09-14T13:24:36.842Z,14.93
2018-09-14T13:27:07.493Z,14.17
2018-09-14T13:29:38.325Z,14.70
2018-09-14T13:32:08.803Z,14.93
2018-09-14T13:34:39.251Z,17.80
2018-09-14T13:37:09.684Z,14.13
2018-09-14T13:39:40.093Z,14.43
2018-09-14T13:42:10.492Z,12.37
2018-09-14T13:44:40.339Z,12.80
2018-09-14T13:47:10.663Z,13.70
2018-09-14T13:49:41.029Z,15.23
2018-09-14T13:52:11.423Z,12.43
2018-09-14T13:54:41.956Z,13.73
2018-09-14T13:57:12.490Z,13.40
